Time;durP1;ratioP1;P1;durP2;ratioP2;P2;SDS_P1;SDS_P2;PMS_P1;PMS_P2;Temp;Humidity;BMP_temperature;BMP_pressure;BME280_temperature;BME280_humidity;BME280_pressure;Samples;Min_cycle;Max_cycle;Signal;HPM_P1;HPM_P2
2023/04/01 00:00:37;;;;;;;2.50;1.10;;;;;;;8.50;100.00;98624.41;6303434;28;20198;-90
2023/04/01 00:03:40;;;;;;;3.97;1.20;;;;;;;8.54;100.00;98621.31;6302973;28;20530;-90
2023/04/01 00:06:42;;;;;;;3.80;1.33;;;;;;;8.52;100.00;98632.75;6303166;28;20513;-90
2023/04/01 00:09:43;;;;;;;4.07;1.40;;;;;;;8.52;100.00;98628.44;6303647;28;20076;-90
2023/04/01 00:12:45;;;;;;;2.35;1.27;;;;;;;8.51;100.00;98628.56;6295808;28;20055;-90
2023/04/01 00:15:48;;;;;;;3.17;1.15;;;;;;;8.51;100.00;98631.16;6298326;28;20125;-91
2023/04/01 00:18:51;;;;;;;3.65;0.90;;;;;;;8.51;100.00;98631.16;6304751;28;20809;-91
2023/04/01 00:21:53;;;;;;;1.60;1.00;;;;;;;8.52;100.00;98631.00;6292997;28;20407;-91
2023/04/01 00:24:55;;;;;;;5.15;1.17;;;;;;;8.52;100.00;98628.44;6303713;28;20036;-91
2023/04/01 00:27:57;;;;;;;4.35;0.90;;;;;;;8.50;100.00;98629.56;6302461;28;20040;-91
2023/04/01 00:31:06;;;;;;;3.35;1.00;;;;;;;8.50;100.00;98635.50;6301638;28;20620;-91
2023/04/01 00:34:07;;;;;;;2.10;1.10;;;;;;;8.48;100.00;98631.47;6303480;28;20040;-90
2023/04/01 00:37:11;;;;;;;3.15;1.23;;;;;;;8.48;100.00;98631.47;6293490;28;20075;-91
2023/04/01 00:40:32;;;;;;;3.15;1.00;;;;;;;8.49;100.00;98627.91;6284989;28;20274;-91
2023/04/01 00:43:35;;;;;;;1.20;0.75;;;;;;;8.47;100.00;98624.69;6285463;28;20032;-90
2023/04/01 00:46:37;;;;;;;4.25;0.90;;;;;;;8.44;100.00;98625.00;6286115;28;20489;-91
2023/04/01 00:49:43;;;;;;;1.65;0.68;;;;;;;8.44;100.00;98623.22;6281293;28;20571;-91
2023/04/01 00:52:46;;;;;;;3.65;0.90;;;;;;;8.38;100.00;98622.03;6282273;28;20327;-91
2023/04/01 00:55:57;;;;;;;1.95;0.70;;;;;;;8.36;100.00;98625.75;6286630;28;20040;-91
2023/04/01 00:59:04;;;;;;;;;;;;;;;8.36;100.00;98633.47;6260578;28;20045;-92
2023/04/01 01:02:09;;;;;;;2.33;0.65;;;;;;;8.37;100.00;98629.91;6267527;28;19955;-91
2023/04/01 01:05:14;;;;;;;3.13;0.80;;;;;;;8.36;100.00;98626.53;6276595;28;20143;-91
2023/04/01 01:08:56;;;;;;;2.90;0.70;;;;;;;8.41;100.00;98626.91;6284982;28;20528;-91
2023/04/01 01:12:24;;;;;;;1.38;0.70;;;;;;;8.36;100.00;98623.16;6292653;28;20045;-92
2023/04/01 01:15:32;;;;;;;1.90;0.90;;;;;;;8.30;100.00;98631.53;6258081;28;20048;-91
2023/04/01 01:18:53;;;;;;;5.68;0.85;;;;;;;8.29;100.00;98627.31;6263135;28;20301;-91
2023/04/01 01:22:27;;;;;;;2.13;0.70;;;;;;;8.30;100.00;98624.59;6285091;28;20044;-91
2023/04/01 01:26:00;;;;;;;3.28;1.05;;;;;;;8.27;100.00;98619.72;6265250;28;20105;-91
2023/04/01 01:29:29;;;;;;;1.00;0.70;;;;;;;8.28;100.00;98631.66;6273631;28;20048;-90
2023/04/01 01:32:54;;;;;;;1.30;0.60;;;;;;;8.30;100.00;98629.75;6260128;28;20044;-91
2023/04/01 01:36:03;;;;;;;2.85;0.82;;;;;;;8.31;100.00;98621.03;6275907;28;20559;-90
2023/04/01 01:39:09;;;;;;;3.58;0.63;;;;;;;8.32;100.00;98627.84;6255185;28;20044;-91
2023/04/01 01:42:15;;;;;;;3.72;0.85;;;;;;;8.31;100.00;98625.41;6250269;28;20102;-91
2023/04/01 01:45:21;;;;;;;2.90;1.00;;;;;;;8.32;100.00;98624.41;6258959;28;20044;-91
2023/04/01 01:48:26;;;;;;;6.55;1.17;;;;;;;8.32;100.00;98620.09;6263966;28;20055;-91
2023/04/01 01:51:28;;;;;;;0.70;0.52;;;;;;;8.31;100.00;98622.81;6264566;28;20090;-91
2023/04/01 01:54:33;;;;;;;1.15;1.00;;;;;;;8.32;100.00;98627.84;6273686;28;20143;-91
2023/04/01 01:57:39;;;;;;;3.88;1.00;;;;;;;8.33;100.00;98628.63;6278270;28;20380;-91
2023/04/01 02:01:02;;;;;;;1.48;0.73;;;;;;;8.32;100.00;98627.84;6261327;28;20135;-90
2023/04/01 02:04:05;;;;;;;4.97;0.80;;;;;;;8.32;100.00;98627.84;6281723;28;20052;-90
2023/04/01 02:07:13;;;;;;;3.00;0.95;;;;;;;8.30;100.00;98624.59;6281359;28;20048;-91
2023/04/01 02:10:21;;;;;;;1.75;0.70;;;;;;;8.29;100.00;98630.69;6298705;28;20445;-91
2023/04/01 02:13:31;;;;;;;1.20;0.60;;;;;;;8.27;100.00;98634.38;6281407;28;20625;-91
2023/04/01 02:16:41;;;;;;;4.83;0.90;;;;;;;8.22;100.00;98631.47;6283183;28;20040;-91
2023/04/01 02:19:49;;;;;;;0.90;0.65;;;;;;;8.24;100.00;98632.13;6281862;28;20059;-90
2023/04/01 02:22:55;;;;;;;2.25;0.90;;;;;;;8.25;100.00;98637.13;6283133;28;20569;-91
2023/04/01 02:25:57;;;;;;;3.10;0.60;;;;;;;8.27;100.00;98637.75;6264649;28;20048;-90
2023/04/01 02:29:01;;;;;;;1.77;0.63;;;;;;;8.26;100.00;98632.78;6265812;28;20609;-90
2023/04/01 02:32:04;;;;;;;3.95;0.82;;;;;;;8.26;100.00;98636.16;6282622;28;20056;-90
2023/04/01 02:35:13;;;;;;;1.08;0.45;;;;;;;8.24;100.00;98635.50;6283234;28;20052;-90
2023/04/01 02:38:15;;;;;;;1.73;0.50;;;;;;;8.26;100.00;98637.94;6280645;28;20123;-90
2023/04/01 02:41:17;;;;;;;1.30;0.40;;;;;;;8.28;100.00;98636.81;6283605;28;20033;-91
2023/04/01 02:44:20;;;;;;;1.95;0.60;;;;;;;8.29;100.00;98629.88;6284137;28;20518;-91
2023/04/01 02:47:24;;;;;;;0.98;0.63;;;;;;;8.29;100.00;98633.28;6266230;28;20127;-92
2023/04/01 02:50:26;;;;;;;0.52;0.52;;;;;;;8.29;100.00;98633.28;6284668;28;20470;-91
2023/04/01 02:53:28;;;;;;;0.68;0.50;;;;;;;8.30;100.00;98637.47;6258727;28;20057;-91
2023/04/01 02:56:30;;;;;;;1.50;0.52;;;;;;;8.28;100.00;98639.41;6274488;28;20045;-91
2023/04/01 02:59:32;;;;;;;1.30;0.60;;;;;;;8.28;100.00;98638.59;6281077;28;20070;-91
2023/04/01 03:02:35;;;;;;;2.85;0.70;;;;;;;8.27;100.00;98631.81;6277147;28;20075;-91
2023/04/01 03:05:37;;;;;;;1.50;0.60;;;;;;;8.24;100.00;98635.50;6283069;28;20056;-91
2023/04/01 03:08:39;;;;;;;1.27;0.57;;;;;;;8.25;100.00;98642.28;6282169;28;20044;-91
2023/04/01 03:11:41;;;;;;;0.95;0.43;;;;;;;8.24;100.00;98635.50;6282718;28;20044;-91
2023/04/01 03:14:42;;;;;;;1.80;0.90;;;;;;;8.26;100.00;98636.16;6283126;28;20052;-92
2023/04/01 03:17:46;;;;;;;1.90;0.60;;;;;;;8.26;100.00;98632.78;6283274;28;20082;-91
2023/04/01 03:20:48;;;;;;;1.45;0.50;;;;;;;8.23;100.00;98638.25;6278143;28;20044;-90
2023/04/01 03:23:53;;;;;;;0.50;0.50;;;;;;;8.22;100.00;98632.25;6283968;28;20347;-91
2023/04/01 03:26:55;;;;;;;2.88;0.60;;;;;;;8.19;100.00;98627.41;6269258;28;20056;-91
2023/04/01 03:29:57;;;;;;;0.77;0.52;;;;;;;8.17;100.00;98629.34;6282294;28;20482;-91
2023/04/01 03:33:01;;;;;;;1.17;0.40;;;;;;;8.16;100.00;98630.31;6281942;28;20135;-91
2023/04/01 03:36:06;;;;;;;1.30;0.50;;;;;;;8.15;100.00;98626.13;6283106;28;20039;-91
2023/04/01 03:39:08;;;;;;;1.27;0.80;;;;;;;8.16;100.00;98627.72;6264685;28;20528;-90
2023/04/01 03:42:15;;;;;;;1.15;0.60;;;;;;;8.14;100.00;98625.28;6283277;28;20051;-91
2023/04/01 03:45:17;;;;;;;1.17;0.60;;;;;;;8.20;100.00;98631.63;6281764;28;20056;-90
2023/04/01 03:48:19;;;;;;;1.27;0.40;;;;;;;8.16;100.00;98638.84;6269528;28;20048;-90
2023/04/01 03:51:21;;;;;;;0.45;0.40;;;;;;;8.14;100.00;98639.97;6283602;28;20048;-90
2023/04/01 03:54:23;;;;;;;0.70;0.45;;;;;;;8.14;100.00;98638.19;6269449;28;20068;-91
2023/04/01 03:57:26;;;;;;;1.38;0.63;;;;;;;8.15;100.00;98646.75;6265810;28;20434;-90
2023/04/01 04:00:32;;;;;;;2.05;0.60;;;;;;;8.16;100.00;98641.41;6266546;28;20086;-90
2023/04/01 04:03:34;;;;;;;0.95;0.47;;;;;;;8.18;100.00;98642.09;6271701;28;20049;-91
2023/04/01 04:06:36;;;;;;;2.40;0.40;;;;;;;8.19;100.00;98642.88;6279258;28;20502;-91
2023/04/01 04:09:38;;;;;;;0.82;0.50;;;;;;;8.19;100.00;98646.25;6283262;28;20469;-90
2023/04/01 04:12:40;;;;;;;1.77;0.60;;;;;;;8.21;100.00;98651.28;6277985;28;20402;-90
2023/04/01 04:15:45;;;;;;;1.02;0.40;;;;;;;8.23;100.00;98658.88;6284610;28;20422;-90
2023/04/01 04:18:47;;;;;;;1.02;0.50;;;;;;;8.21;100.00;98648.69;6282499;28;20064;-91
2023/04/01 04:21:51;;;;;;;1.25;0.80;;;;;;;8.20;100.00;98645.31;6287736;28;20103;-91
2023/04/01 04:24:54;;;;;;;0.80;0.52;;;;;;;8.26;100.00;98653.41;6276988;28;20222;-90
2023/04/01 04:27:56;;;;;;;4.03;0.73;;;;;;;8.22;100.00;98646.94;6285163;28;20043;-91
2023/04/01 04:30:59;;;;;;;1.45;0.60;;;;;;;8.22;100.00;98658.03;6283554;28;20032;-90
2023/04/01 04:34:01;;;;;;;0.50;0.50;;;;;;;8.17;100.00;98649.94;6281583;28;20502;-90
2023/04/01 04:37:07;;;;;;;1.20;0.50;;;;;;;8.15;100.00;98662.22;6286734;28;20044;-89
2023/04/01 04:40:11;;;;;;;1.38;0.50;;;;;;;8.14;100.00;98669.09;6266696;28;20111;-89
2023/04/01 04:43:15;;;;;;;1.50;0.65;;;;;;;8.15;100.00;98668.16;6285796;28;20036;-90
2023/04/01 04:46:17;;;;;;;1.15;0.60;;;;;;;8.18;100.00;98669.63;6286606;28;20119;-90
2023/04/01 04:49:21;;;;;;;0.82;0.60;;;;;;;8.12;100.00;98673.63;6285642;28;20135;-90
2023/04/01 04:52:23;;;;;;;1.65;0.55;;;;;;;8.09;100.00;98673.09;6273930;28;20040;-90
2023/04/01 04:55:24;;;;;;;0.70;0.65;;;;;;;8.06;100.00;98674.22;6287038;28;20132;-90
2023/04/01 04:58:47;;;;;;;2.75;0.60;;;;;;;8.12;100.00;98670.22;6286480;28;20049;-91
2023/04/01 05:01:53;;;;;;;4.28;0.75;;;;;;;8.05;100.00;98677.75;6269824;28;20048;-91
2023/04/01 05:04:55;;;;;;;0.85;0.57;;;;;;;8.03;100.00;98677.09;6286195;28;20052;-94
2023/04/01 05:07:57;;;;;;;0.85;0.60;;;;;;;8.06;100.00;98678.56;6288288;28;20588;-95
2023/04/01 05:11:00;;;;;;;1.27;0.65;;;;;;;8.06;100.00;98681.16;6286430;28;20863;-93
2023/04/01 05:14:11;;;;;;;0.77;0.60;;;;;;;8.06;100.00;98689.69;6284429;28;20040;-93
2023/04/01 05:17:13;;;;;;;2.88;0.43;;;;;;;8.07;100.00;98687.91;6287747;28;20036;-93
2023/04/01 05:20:15;;;;;;;0.95;0.30;;;;;;;8.08;100.00;98698.06;6286322;28;20044;-93
2023/04/01 05:23:20;;;;;;;2.55;1.30;;;;;;;8.15;100.00;98690.56;6283720;28;20047;-94
2023/04/01 05:26:23;;;;;;;2.65;0.60;;;;;;;8.14;100.00;98697.44;6287396;28;20052;-95
2023/04/01 05:29:26;;;;;;;0.80;0.50;;;;;;;8.18;100.00;98693.63;6288449;28;20037;-95
2023/04/01 05:32:36;;;;;;;2.40;0.65;;;;;;;8.19;100.00;98695.22;6300712;28;20434;-96
2023/04/01 05:35:39;;;;;;;3.53;0.95;;;;;;;8.28;100.00;98697.88;6262481;28;20059;-95
2023/04/01 05:38:43;;;;;;;4.70;0.77;;;;;;;8.32;100.00;98694.84;6284502;28;20064;-95
2023/04/01 05:41:46;;;;;;;1.80;0.70;;;;;;;8.38;100.00;98701.97;6262899;28;20131;-95
2023/04/01 05:44:48;;;;;;;2.42;0.70;;;;;;;8.46;100.00;98705.59;6283050;28;20047;-94
2023/04/01 05:48:09;;;;;;;1.48;0.75;;;;;;;8.55;100.00;98705.47;6283007;28;20053;-95
2023/04/01 05:51:14;;;;;;;1.55;0.80;;;;;;;8.57;100.00;98702.72;6269413;28;20044;-94
2023/04/01 05:54:17;;;;;;;1.45;0.65;;;;;;;8.59;100.00;98711.13;6286114;28;20028;-93
2023/04/01 05:57:19;;;;;;;1.45;1.20;;;;;;;8.71;100.00;98715.06;6273974;28;20129;-92
2023/04/01 06:00:21;;;;;;;1.85;0.82;;;;;;;8.77;100.00;98709.31;6284312;28;20059;-93
2023/04/01 06:03:24;;;;;;;1.13;0.85;;;;;;;8.83;100.00;98716.41;6275835;28;20044;-92
2023/04/01 06:06:28;;;;;;;1.20;0.75;;;;;;;8.90;100.00;98711.44;6285272;28;20045;-92
2023/04/01 06:09:39;;;;;;;1.60;0.80;;;;;;;9.01;100.00;98720.66;6285449;28;20052;-92
2023/04/01 06:12:51;;;;;;;2.03;0.77;;;;;;;9.07;100.00;98714.91;6284000;28;20114;-92
2023/04/01 06:16:31;;;;;;;2.00;0.80;;;;;;;9.12;100.00;98715.25;6285756;28;20036;-92
2023/04/01 06:19:45;;;;;;;2.03;0.80;;;;;;;9.15;100.00;98720.09;6281143;28;20055;-92
2023/04/01 06:23:04;;;;;;;1.60;0.98;;;;;;;9.18;100.00;98721.53;6282832;28;20516;-93
2023/04/01 06:26:39;;;;;;;1.23;1.00;;;;;;;9.22;100.00;98718.50;6276958;28;20040;-92
2023/04/01 06:29:52;;;;;;;2.20;0.90;;;;;;;9.23;100.00;98722.69;6249970;28;20048;-94
2023/04/01 06:33:22;;;;;;;2.47;0.70;;;;;;;9.25;100.00;98725.13;6285217;28;20142;-94
2023/04/01 06:37:03;;;;;;;2.78;1.88;;;;;;;9.30;100.00;98722.88;6270294;28;20517;-94
2023/04/01 06:40:17;;;;;;;1.75;1.00;;;;;;;9.38;100.00;98720.28;6266975;28;20052;-94
2023/04/01 06:43:42;;;;;;;2.05;1.02;;;;;;;9.43;100.00;98725.78;6283425;28;20186;-93
2023/04/01 06:47:22;;;;;;;3.05;0.85;;;;;;;9.52;100.00;98733.59;6285570;28;20080;-93
2023/04/01 06:51:58;;;;;;;2.65;1.95;;;;;;;9.59;100.00;98727.63;6305980;28;20087;-93
2023/04/01 06:55:42;;;;;;;1.45;0.95;;;;;;;9.62;100.00;98735.03;6274566;28;20041;-93
2023/04/01 06:59:28;;;;;;;2.45;1.23;;;;;;;9.61;100.00;98728.25;6230709;28;20538;-92
2023/04/01 07:02:43;;;;;;;1.75;1.27;;;;;;;9.63;100.00;98736.66;6223054;28;20034;-92
2023/04/01 07:05:45;;;;;;;2.50;1.50;;;;;;;9.67;100.00;98737.16;6208237;28;20282;-91
2023/04/01 07:08:52;;;;;;;2.35;1.00;;;;;;;9.62;100.00;98734.25;6211497;28;20487;-92
2023/04/01 07:11:59;;;;;;;1.23;0.60;;;;;;;9.64;100.00;98732.31;6213351;28;20049;-92
2023/04/01 07:15:38;;;;;;;3.50;1.00;;;;;;;9.78;100.00;98736.03;6226782;28;20046;-91
2023/04/01 07:18:49;;;;;;;3.35;0.73;;;;;;;9.87;100.00;98735.88;6196523;28;20041;-91
2023/04/01 07:21:56;;;;;;;1.98;0.90;;;;;;;9.93;100.00;98737.78;6219847;28;20626;-91
2023/04/01 07:25:16;;;;;;;1.33;0.70;;;;;;;10.10;100.00;98748.16;6223999;28;20049;-91
2023/04/01 07:28:30;;;;;;;1.25;0.85;;;;;;;10.22;100.00;98741.69;6230153;28;20562;-91
2023/04/01 07:32:17;;;;;;;1.70;1.15;;;;;;;10.28;100.00;98751.41;6281163;28;20141;-91
2023/04/01 07:35:31;;;;;;;3.25;1.13;;;;;;;10.42;100.00;98747.34;6288284;28;20562;-91
2023/04/01 07:39:00;;;;;;;3.50;1.23;;;;;;;10.61;100.00;98751.38;6278658;28;20383;-91
2023/04/01 07:42:57;;;;;;;2.10;1.30;;;;;;;10.85;100.00;98753.06;6292733;28;20060;-90
2023/04/01 07:46:19;;;;;;;2.20;1.10;;;;;;;11.05;100.00;98747.50;6238541;28;20076;-90
2023/04/01 07:49:28;;;;;;;;;;;;;;;11.05;100.00;98753.47;6243157;28;20045;-91
2023/04/01 07:52:53;;;;;;;2.10;1.30;;;;;;;11.15;100.00;98753.28;6241111;28;19982;-91
2023/04/01 07:56:22;;;;;;;1.92;1.13;;;;;;;11.29;100.00;98749.97;6251472;28;20049;-91
2023/04/01 07:59:38;;;;;;;2.08;1.10;;;;;;;11.47;100.00;98746.31;6240647;28;20045;-91
2023/04/01 08:03:40;;;;;;;2.90;1.25;;;;;;;11.56;100.00;98748.69;6257197;28;20328;-90
2023/04/01 08:06:42;;;;;;;1.92;1.20;;;;;;;11.71;100.00;98753.16;6247856;28;20118;-91
2023/04/01 08:10:10;;;;;;;1.48;1.38;;;;;;;11.87;100.00;98752.25;6242029;28;20045;-91
2023/04/01 08:13:42;;;;;;;4.00;1.15;;;;;;;11.91;100.00;98749.16;6255802;28;20610;-90
2023/04/01 08:17:28;;;;;;;3.67;1.17;;;;;;;11.90;100.00;98751.91;6259869;28;20057;-91
2023/04/01 08:20:41;;;;;;;1.85;1.20;;;;;;;11.97;100.00;98755.41;6257469;28;20049;-90
2023/04/01 08:23:47;;;;;;;0.88;0.80;;;;;;;12.02;100.00;98756.53;6273856;28;20053;-91
2023/04/01 08:26:57;;;;;;;1.30;0.82;;;;;;;12.20;100.00;98753.63;6288490;28;20045;-90
2023/04/01 08:30:21;;;;;;;3.47;1.00;;;;;;;12.43;100.00;98752.78;6285892;28;20214;-91
2023/04/01 08:33:27;;;;;;;1.48;0.77;;;;;;;12.68;100.00;98753.34;6279590;28;20049;-91
2023/04/01 08:36:54;;;;;;;1.23;0.80;;;;;;;12.86;100.00;98756.38;6287680;28;20435;-91
2023/04/01 08:40:01;;;;;;;1.48;0.70;;;;;;;12.89;100.00;98752.59;6278097;28;20059;-91
2023/04/01 08:43:03;;;;;;;1.20;0.82;;;;;;;12.91;100.00;98756.63;6285072;28;20055;-91
2023/04/01 08:46:37;;;;;;;2.88;1.27;;;;;;;12.96;100.00;98755.28;6282367;28;20533;-90
2023/04/01 08:49:42;;;;;;;1.35;0.88;;;;;;;13.01;100.00;98758.97;6278427;28;20063;-91
2023/04/01 08:53:40;;;;;;;1.23;0.70;;;;;;;12.98;100.00;98761.13;6252989;28;20048;-90
2023/04/01 08:57:11;;;;;;;2.80;0.70;;;;;;;12.98;100.00;98763.72;6150294;28;20533;-90
2023/04/01 09:01:18;;;;;;;0.60;0.60;;;;;;;13.08;100.00;98762.44;6157082;28;20521;-90
2023/04/01 09:04:25;;;;;;;1.80;0.90;;;;;;;13.22;100.00;98760.84;6086622;29;20052;-91
2023/04/01 09:08:05;;;;;;;1.35;0.55;;;;;;;13.43;100.00;98767.09;6092664;29;20683;-90
2023/04/01 09:11:40;;;;;;;2.35;0.90;;;;;;;13.42;100.00;98768.88;6088608;29;20059;-90
2023/04/01 09:15:28;;;;;;;2.25;0.70;;;;;;;13.13;100.00;98765.31;6090542;29;20091;-90
2023/04/01 09:18:54;;;;;;;0.75;0.70;;;;;;;12.91;100.00;98761.81;6074428;29;20051;-91
2023/04/01 09:22:22;;;;;;;1.55;0.50;;;;;;;12.58;100.00;98770.97;6091537;29;20052;-90
2023/04/01 09:26:02;;;;;;;2.25;0.80;;;;;;;12.04;100.00;98780.47;6097302;29;20055;-90
2023/04/01 09:29:50;;;;;;;0.52;0.52;;;;;;;11.90;100.00;98790.78;6080912;29;20058;-89
2023/04/01 09:32:57;;;;;;;1.02;0.70;;;;;;;12.04;100.00;98798.63;6136465;28;20077;-90
2023/04/01 09:36:46;;;;;;;2.50;0.50;;;;;;;12.21;100.00;98794.13;6152442;28;20054;-90
2023/04/01 09:40:14;;;;;;;1.20;0.60;;;;;;;12.37;100.00;98806.19;6186214;28;20057;-90
2023/04/01 09:43:40;;;;;;;1.10;0.60;;;;;;;12.49;100.00;98803.94;6245848;28;20391;-90
2023/04/01 09:46:48;;;;;;;0.77;0.50;;;;;;;12.56;100.00;98802.28;6268970;28;20409;-91
2023/04/01 09:50:29;;;;;;;0.88;0.60;;;;;;;12.62;100.00;98798.97;6261039;28;20139;-90
2023/04/01 09:53:39;;;;;;;0.70;0.50;;;;;;;12.78;100.00;98807.59;6248438;28;20114;-91
2023/04/01 09:57:13;;;;;;;2.40;0.70;;;;;;;12.97;100.00;98817.47;6263333;28;20049;-90
2023/04/01 10:00:53;;;;;;;1.55;0.85;;;;;;;13.20;100.00;98814.75;6246124;28;20067;-91
2023/04/01 10:04:42;;;;;;;0.77;0.50;;;;;;;13.42;100.00;98818.28;6263998;28;20485;-91
2023/04/01 10:08:02;;;;;;;0.50;0.50;;;;;;;13.66;100.00;98821.53;6280255;28;20561;-91
2023/04/01 10:11:24;;;;;;;0.82;0.50;;;;;;;13.78;100.00;98828.66;6237329;28;20262;-91
2023/04/01 10:14:57;;;;;;;1.27;0.60;;;;;;;13.95;100.00;98831.06;6279161;28;20556;-91
2023/04/01 10:18:27;;;;;;;1.08;0.60;;;;;;;14.14;100.00;98830.44;6259248;28;20041;-92
2023/04/01 10:21:37;;;;;;;0.50;0.50;;;;;;;14.35;100.00;98832.22;6271602;28;20132;-90
2023/04/01 10:24:59;;;;;;;1.48;0.50;;;;;;;14.41;100.00;98843.69;6258555;28;20044;-91
2023/04/01 10:28:30;;;;;;;0.93;0.45;;;;;;;14.57;100.00;98840.03;6262918;28;20514;-91
2023/04/01 10:32:24;;;;;;;1.25;0.47;;;;;;;14.71;100.00;98839.16;6281350;28;20089;-91
2023/04/01 10:35:50;;;;;;;1.50;0.45;;;;;;;14.71;100.00;98836.56;6285530;28;20051;-91
2023/04/01 10:38:55;;;;;;;1.13;0.68;;;;;;;14.59;100.00;98838.06;6284494;28;20048;-91
2023/04/01 10:42:37;;;;;;;0.98;0.60;;;;;;;14.58;100.00;98836.44;6284305;28;20040;-91
2023/04/01 10:46:25;;;;;;;0.50;0.50;;;;;;;14.60;100.00;98837.84;6284662;28;20052;-91
2023/04/01 10:49:45;;;;;;;1.85;0.70;;;;;;;14.77;100.00;98843.59;6283581;28;20087;-91
2023/04/01 10:52:57;;;;;;;1.83;0.80;;;;;;;14.93;100.00;98841.69;6266779;28;20079;-92
2023/04/01 10:56:51;;;;;;;1.58;0.70;;;;;;;14.89;100.00;98843.88;6282796;28;20139;-90
2023/04/01 11:00:50;;;;;;;0.45;0.40;;;;;;;15.00;100.00;98850.34;6285542;28;20056;-91
2023/04/01 11:04:39;;;;;;;0.65;0.60;;;;;;;15.31;100.00;98846.53;6270600;28;20048;-91
2023/04/01 11:08:17;;;;;;;2.40;0.90;;;;;;;15.44;100.00;98852.59;6280308;28;20155;-92
2023/04/01 11:11:42;;;;;;;0.82;0.73;;;;;;;15.40;100.00;98854.00;6267938;28;20516;-91
2023/04/01 11:15:25;;;;;;;1.10;0.85;;;;;;;15.54;100.00;98848.84;6282843;28;20044;-91
2023/04/01 11:18:58;;;;;;;0.80;0.73;;;;;;;15.65;100.00;98858.69;6266524;28;20052;-91
2023/04/01 11:22:35;;;;;;;1.50;0.88;;;;;;;15.72;100.00;98862.16;6266017;28;20406;-90
2023/04/01 11:26:35;;;;;;;1.13;0.77;;;;;;;15.62;100.00;98865.09;6258142;28;20139;-90
2023/04/01 11:30:26;;;;;;;0.85;0.80;;;;;;;15.52;100.00;98867.28;6177088;28;20058;-90
2023/04/01 11:33:58;;;;;;;0.85;0.85;;;;;;;15.43;100.00;98871.06;6182243;28;20258;-90
2023/04/01 11:37:39;;;;;;;1.08;0.90;;;;;;;15.29;100.00;98878.81;6085191;29;20115;-90
2023/04/01 11:41:34;;;;;;;0.60;0.60;;;;;;;15.25;100.00;98868.94;6090374;29;20146;-90
2023/04/01 11:45:16;;;;;;;1.73;0.63;;;;;;;15.26;100.00;98881.00;6084885;29;20060;-90
2023/04/01 11:48:32;;;;;;;1.52;0.60;;;;;;;15.36;100.00;98878.03;6084787;29;20055;-90
2023/04/01 11:51:52;;;;;;;0.98;0.52;;;;;;;15.37;100.00;98883.03;6070909;29;20429;-90
2023/04/01 11:55:11;;;;;;;0.50;0.50;;;;;;;15.38;100.00;98889.06;6071685;29;20755;-90
2023/04/01 11:58:24;;;;;;;0.50;0.43;;;;;;;15.27;100.00;98898.22;6088135;29;20048;-90
2023/04/01 12:01:54;;;;;;;0.60;0.43;;;;;;;15.14;100.00;98898.97;6147487;28;20102;-90
2023/04/01 12:05:19;;;;;;;0.70;0.70;;;;;;;14.80;100.00;98903.13;6182856;28;20046;-90
2023/04/01 12:08:36;;;;;;;0.60;0.60;;;;;;;14.83;100.00;98902.75;6157508;28;20065;-90
2023/04/01 12:11:49;;;;;;;2.17;0.70;;;;;;;15.08;100.00;98904.94;6154494;28;20050;-90
2023/04/01 12:15:16;;;;;;;2.35;0.68;;;;;;;15.28;100.00;98905.06;6212040;28;20048;-90
2023/04/01 12:18:31;;;;;;;1.10;0.68;;;;;;;15.37;100.00;98910.94;6238956;28;20125;-90
2023/04/01 12:21:44;;;;;;;0.95;0.77;;;;;;;15.37;100.00;98913.53;6265858;28;20041;-90
2023/04/01 12:25:03;;;;;;;0.95;0.80;;;;;;;15.35;100.00;98916.31;6278525;28;20053;-90
2023/04/01 12:28:25;;;;;;;1.33;0.80;;;;;;;15.24;100.00;98917.66;6262243;28;20152;-90
2023/04/01 12:32:04;;;;;;;1.05;1.00;;;;;;;14.98;100.00;98913.09;6268360;28;20044;-91
2023/04/01 12:35:25;;;;;;;0.80;0.80;;;;;;;14.66;100.00;98924.88;6276024;28;20093;-91
2023/04/01 12:38:50;;;;;;;1.15;0.85;;;;;;;14.46;100.00;98923.81;6283120;28;20387;-92
2023/04/01 12:42:05;;;;;;;1.50;0.60;;;;;;;14.35;100.00;98925.94;6268713;28;20098;-91
2023/04/01 12:45:16;;;;;;;0.50;0.50;;;;;;;14.26;100.00;98927.06;6272597;28;20048;-90
2023/04/01 12:48:41;;;;;;;1.63;0.70;;;;;;;14.20;100.00;98928.56;6284196;28;20284;-91
2023/04/01 12:52:02;;;;;;;0.77;0.77;;;;;;;14.27;100.00;98938.25;6281597;28;20118;-91
2023/04/01 12:55:39;;;;;;;0.93;0.88;;;;;;;14.33;100.00;98946.13;6281078;28;20040;-91
2023/04/01 12:59:20;;;;;;;0.70;0.70;;;;;;;14.48;100.00;98947.88;6285794;28;20051;-91
2023/04/01 13:02:46;;;;;;;0.90;0.80;;;;;;;14.50;100.00;98945.91;6286214;28;20143;-91
2023/04/01 13:06:34;;;;;;;2.97;1.38;;;;;;;14.51;100.00;98950.09;6287397;28;20083;-91
2023/04/01 13:09:48;;;;;;;3.03;1.67;;;;;;;14.52;100.00;98956.94;6262001;28;20058;-91
2023/04/01 13:13:17;;;;;;;1.23;1.13;;;;;;;14.47;100.00;98959.28;6283358;28;20041;-91
2023/04/01 13:16:38;;;;;;;1.58;0.70;;;;;;;14.21;100.00;98955.44;6282353;28;20112;-91
2023/04/01 13:20:15;;;;;;;0.68;0.60;;;;;;;14.02;100.00;98967.22;6277961;28;20113;-90
2023/04/01 13:23:47;;;;;;;1.58;0.90;;;;;;;13.93;100.00;98969.09;6283146;28;20040;-90
2023/04/01 13:27:11;;;;;;;1.08;1.00;;;;;;;13.94;100.00;98972.53;6287475;28;20494;-90
2023/04/01 13:30:33;;;;;;;1.70;0.80;;;;;;;13.99;100.00;98977.97;6270104;28;20033;-90
2023/04/01 13:33:35;;;;;;;0.70;0.70;;;;;;;14.06;100.00;98972.84;6283296;28;20040;-91
2023/04/01 13:37:14;;;;;;;1.75;0.75;;;;;;;14.26;100.00;98984.31;6277295;28;20060;-91
2023/04/01 13:40:42;;;;;;;1.17;0.60;;;;;;;14.27;100.00;98985.91;6281619;28;20051;-91
2023/04/01 13:44:18;;;;;;;0.70;0.70;;;;;;;14.18;100.00;98992.19;6284303;28;20286;-90
2023/04/01 13:47:45;;;;;;;1.55;0.60;;;;;;;14.17;100.00;98998.41;6282411;28;20048;-90
2023/04/01 13:51:21;;;;;;;1.20;0.60;;;;;;;14.35;100.00;99005.81;6282354;28;20548;-91
2023/04/01 13:54:40;;;;;;;1.30;1.02;;;;;;;14.53;100.00;99002.81;6273461;28;20044;-91
2023/04/01 13:57:57;;;;;;;1.05;0.65;;;;;;;14.67;100.00;99009.81;6281148;28;20488;-91
2023/04/01 14:01:08;;;;;;;0.60;0.60;;;;;;;14.77;100.00;99007.69;6281221;28;20158;-91
2023/04/01 14:04:32;;;;;;;1.95;0.70;;;;;;;14.88;100.00;99014.22;6281610;28;20033;-91
2023/04/01 14:08:14;;;;;;;1.23;0.77;;;;;;;14.91;100.00;99013.06;6282828;28;20040;-91
2023/04/01 14:11:30;;;;;;;0.70;0.70;;;;;;;14.70;100.00;99019.03;6282603;28;20458;-91
2023/04/01 14:15:04;;;;;;;0.50;0.50;;;;;;;14.50;100.00;99027.41;6270946;28;20380;-91
2023/04/01 14:18:30;;;;;;;0.90;0.63;;;;;;;14.15;100.00;99026.41;6276196;28;20128;-90
2023/04/01 14:21:37;;;;;;;1.23;0.85;;;;;;;13.63;100.00;99030.69;6281064;28;20055;-90
2023/04/01 14:25:10;;;;;;;10.15;4.40;;;;;;;13.10;100.00;99046.25;6274323;28;20436;-90
2023/04/01 14:28:37;;;;;;;3.00;2.55;;;;;;;12.67;100.00;99051.06;6276996;28;20055;-90
2023/04/01 14:32:01;;;;;;;3.25;2.00;;;;;;;12.33;100.00;99058.38;6281723;28;20365;-90
2023/04/01 14:35:36;;;;;;;2.30;2.10;;;;;;;12.09;100.00;99064.47;6279869;28;20040;-90
2023/04/01 14:39:16;;;;;;;1.75;1.63;;;;;;;11.76;100.00;99080.06;6279874;28;20393;-90
2023/04/01 14:42:27;;;;;;;1.90;1.80;;;;;;;11.49;100.00;99078.63;6277743;28;20040;-90
2023/04/01 14:45:55;;;;;;;2.03;1.80;;;;;;;11.35;100.00;99091.28;6278556;28;20072;-91
2023/04/01 14:49:04;;;;;;;2.10;1.92;;;;;;;11.05;100.00;99099.63;6277759;28;20037;-91
2023/04/01 14:52:30;;;;;;;2.22;2.03;;;;;;;10.68;100.00;99095.66;6281087;28;20036;-90
2023/04/01 14:55:50;;;;;;;1.92;1.73;;;;;;;10.49;100.00;99104.50;6279059;28;20075;-91
2023/04/01 14:58:59;;;;;;;2.33;1.85;;;;;;;10.37;100.00;99116.09;6277918;28;20040;-92
2023/04/01 15:02:42;;;;;;;4.35;1.80;;;;;;;10.27;100.00;99122.16;6263608;28;20064;-92
2023/04/01 15:06:21;;;;;;;1.63;1.52;;;;;;;10.06;100.00;99132.03;6282377;28;20434;-92
2023/04/01 15:10:00;;;;;;;1.27;1.17;;;;;;;10.07;100.00;99137.06;6273320;28;20044;-91
2023/04/01 15:13:20;;;;;;;0.88;0.82;;;;;;;9.95;100.00;99143.44;6273860;28;20040;-92
2023/04/01 15:16:50;;;;;;;0.90;0.90;;;;;;;9.87;100.00;99143.41;6274574;28;20177;-92
2023/04/01 15:20:10;;;;;;;1.50;1.30;;;;;;;9.77;100.00;99164.16;6268046;28;20032;-92
2023/04/01 15:23:34;;;;;;;1.50;1.40;;;;;;;9.73;100.00;99162.03;6280596;28;20044;-92
2023/04/01 15:26:55;;;;;;;1.00;1.00;;;;;;;9.58;100.00;99179.81;6278395;28;20509;-92